createdAt,value
2019-04-29T00:01:02.686Z,7.10
2019-04-29T00:06:11.003Z,7.27
2019-04-29T00:11:18.534Z,7.80
2019-04-29T00:16:44.666Z,7.27
2019-04-29T00:21:52.122Z,7.60
2019-04-29T00:26:59.529Z,7.40
2019-04-29T00:32:07.534Z,7.13
2019-04-29T00:37:26.305Z,7.77
2019-04-29T00:43:10.496Z,7.20
2019-04-29T00:48:18.423Z,7.80
2019-04-29T00:53:26.266Z,7.77
2019-04-29T00:58:33.615Z,7.67
2019-04-29T01:03:41.227Z,7.33
2019-04-29T01:08:49.086Z,7.80
2019-04-29T01:13:56.391Z,8.60
2019-04-29T01:19:04.051Z,8.10
2019-04-29T01:24:11.574Z,9.03
2019-04-29T01:29:19.912Z,8.57
2019-04-29T01:34:32.312Z,8.63
2019-04-29T01:39:45.577Z,8.67
2019-04-29T01:44:52.946Z,9.23
2019-04-29T01:50:00.327Z,8.80
2019-04-29T01:55:07.707Z,8.67
2019-04-29T02:00:15.406Z,9.00
2019-04-29T02:05:22.801Z,8.60
2019-04-29T02:10:34.583Z,9.00
2019-04-29T02:15:41.938Z,7.63
2019-04-29T02:20:49.294Z,7.83
2019-04-29T02:25:56.772Z,7.93
2019-04-29T02:31:21.835Z,7.80
2019-04-29T02:36:30.143Z,7.27
2019-04-29T02:41:52.073Z,7.20
2019-04-29T02:46:59.465Z,7.60
2019-04-29T02:52:06.914Z,7.60
2019-04-29T02:57:37.613Z,7.80
2019-04-29T03:02:53.223Z,8.67
2019-04-29T03:08:00.639Z,8.17
2019-04-29T03:13:08.421Z,8.73
2019-04-29T03:18:17.155Z,8.13
2019-04-29T03:23:25.037Z,9.07
2019-04-29T03:28:32.505Z,9.17
2019-04-29T03:33:39.893Z,9.70
2019-04-29T03:38:47.312Z,9.47
2019-04-29T03:43:54.656Z,8.87
2019-04-29T03:49:01.889Z,10.13
2019-04-29T03:54:11.257Z,9.80
2019-04-29T03:59:18.871Z,10.40
2019-04-29T04:04:44.103Z,9.40
2019-04-29T04:09:51.481Z,9.63
2019-04-29T04:14:58.697Z,9.47
2019-04-29T04:20:06.583Z,8.90
2019-04-29T04:25:13.992Z,8.63
2019-04-29T04:30:22.971Z,9.13
2019-04-29T04:35:30.352Z,9.27
2019-04-29T04:40:43.518Z,11.17
2019-04-29T04:45:50.796Z,10.67
2019-04-29T04:50:58.083Z,11.10
2019-04-29T04:56:05.324Z,11.80
2019-04-29T05:01:12.699Z,11.87
2019-04-29T05:06:20.007Z,11.90
2019-04-29T05:11:27.251Z,11.83
2019-04-29T05:16:34.561Z,13.03
2019-04-29T05:21:42.070Z,13.33
2019-04-29T05:26:49.303Z,13.53
2019-04-29T05:31:56.578Z,13.47
2019-04-29T05:37:28.784Z,13.57
2019-04-29T05:42:36.209Z,14.40
2019-04-29T05:47:47.087Z,13.57
2019-04-29T05:53:00.101Z,15.20
2019-04-29T05:58:13.086Z,14.90
2019-04-29T06:03:20.359Z,14.00
2019-04-29T06:08:27.734Z,15.23
2019-04-29T06:13:35.014Z,14.83
2019-04-29T06:18:42.256Z,16.43
2019-04-29T06:23:49.601Z,15.80
2019-04-29T06:28:56.912Z,16.63
2019-04-29T06:34:05.299Z,18.13
2019-04-29T06:39:13.414Z,17.40
2019-04-29T06:44:20.640Z,18.47
2019-04-29T06:49:28.012Z,19.20
2019-04-29T06:54:35.273Z,20.10
2019-04-29T06:59:42.910Z,20.47
2019-04-29T07:04:51.507Z,22.77
2019-04-29T07:09:58.827Z,22.50
2019-04-29T07:15:07.710Z,22.00
2019-04-29T07:20:15.946Z,21.70
2019-04-29T07:25:24.648Z,22.90
2019-04-29T07:30:32.170Z,23.27
2019-04-29T07:35:43.117Z,19.23
2019-04-29T07:40:48.467Z,19.37
2019-04-29T07:46:16.399Z,19.13
2019-04-29T07:51:23.618Z,19.03
2019-04-29T07:56:30.947Z,19.83
2019-04-29T08:01:38.364Z,18.50
2019-04-29T08:06:46.771Z,19.83
2019-04-29T08:11:54.757Z,18.37
2019-04-29T08:17:02.002Z,17.53
2019-04-29T08:22:09.390Z,18.00
2019-04-29T08:27:16.728Z,16.10
2019-04-29T08:32:24.241Z,15.10
2019-04-29T08:37:31.621Z,16.37
2019-04-29T08:42:46.534Z,14.20
2019-04-29T08:47:51.454Z,14.13
2019-04-29T08:52:58.704Z,13.50
2019-04-29T08:58:06.898Z,10.50
2019-04-29T09:03:18.761Z,10.80
2019-04-29T09:08:24.159Z,11.10
2019-04-29T09:13:31.568Z,11.43
2019-04-29T09:18:38.898Z,10.73
2019-04-29T09:23:46.289Z,11.23
2019-04-29T09:28:53.598Z,11.37
2019-04-29T09:34:06.881Z,10.93
2019-04-29T09:39:09.941Z,11.13
2019-04-29T09:44:35.288Z,12.23
2019-04-29T09:49:43.980Z,13.20
2019-04-29T09:54:51.382Z,12.70
2019-04-29T10:00:07.280Z,12.63
2019-04-29T10:05:32.238Z,11.60
2019-04-29T10:10:39.803Z,10.67
2019-04-29T10:16:05.888Z,10.10
2019-04-29T10:21:16.713Z,8.97
2019-04-29T10:26:24.161Z,9.37
2019-04-29T10:31:31.463Z,9.38
2019-04-29T10:36:38.673Z,9.85
2019-04-29T10:41:47.915Z,7.80
2019-04-29T10:47:12.666Z,5.97
2019-04-29T10:52:20.323Z,5.27
2019-04-29T10:57:29.424Z,5.60
2019-04-29T11:02:39.619Z,5.10
2019-04-29T11:07:47.437Z,5.07
2019-04-29T11:12:56.271Z,5.70
2019-04-29T11:18:04.873Z,6.03
2019-04-29T11:23:32.223Z,4.57
2019-04-29T11:28:41.156Z,5.87
2019-04-29T11:33:58.813Z,5.20
2019-04-29T11:39:13.565Z,5.20
2019-04-29T11:44:22.012Z,5.40
2019-04-29T11:49:35.442Z,5.20
2019-04-29T11:54:42.715Z,5.67
2019-04-29T12:00:10.190Z,6.20
2019-04-29T12:05:23.245Z,6.53
2019-04-29T12:10:30.832Z,6.30
2019-04-29T12:15:57.604Z,7.20
2019-04-29T12:21:25.677Z,5.70
2019-04-29T12:26:35.521Z,6.90
2019-04-29T12:32:04.488Z,7.00
2019-04-29T12:37:39.785Z,6.77
2019-04-29T12:43:18.110Z,6.77
2019-04-29T12:48:25.722Z,6.30
2019-04-29T12:53:33.085Z,5.97
2019-04-29T12:58:40.481Z,6.70
2019-04-29T13:04:05.438Z,5.80
2019-04-29T13:09:19.798Z,6.03
2019-04-29T13:14:33.101Z,5.87
2019-04-29T13:19:54.630Z,5.43
2019-04-29T13:24:54.992Z,4.90
2019-04-29T13:30:02.407Z,4.43
2019-04-29T13:35:12.764Z,3.90
2019-04-29T13:40:20.736Z,3.60
2019-04-29T13:45:36.293Z,3.50
2019-04-29T13:50:47.808Z,3.50
2019-04-29T13:56:10.515Z,5.17
2019-04-29T14:01:32.943Z,5.43
2019-04-29T14:06:36.127Z,4.47
2019-04-29T14:11:43.445Z,4.60
2019-04-29T14:17:08.071Z,5.20
2019-04-29T14:21:59.819Z,5.37
2019-04-29T14:27:07.473Z,4.93
2019-04-29T14:32:18.086Z,4.90
2019-04-29T14:37:25.505Z,5.10
2019-04-29T14:42:39.575Z,4.60
2019-04-29T14:47:52.923Z,4.43
2019-04-29T14:53:00.349Z,5.30
2019-04-29T14:58:07.660Z,5.70
2019-04-29T15:03:14.989Z,5.57
2019-04-29T15:08:22.372Z,6.30
2019-04-29T15:13:29.702Z,6.53
2019-04-29T15:18:54.820Z,6.40
2019-04-29T15:24:02.303Z,8.33
2019-04-29T15:29:10.915Z,9.53
2019-04-29T15:34:18.432Z,15.67
2019-04-29T15:39:26.376Z,17.90
2019-04-29T15:44:35.002Z,20.50
2019-04-29T15:49:42.417Z,22.53
2019-04-29T15:54:50.918Z,23.77
2019-04-29T16:00:03.723Z,25.03
2019-04-29T16:05:28.825Z,25.47
2019-04-29T16:10:57.936Z,26.03
2019-04-29T16:16:02.543Z,28.50
2019-04-29T16:21:10.020Z,27.83
2019-04-29T16:26:17.484Z,34.20
2019-04-29T16:31:25.144Z,34.60
2019-04-29T16:36:32.655Z,43.80
2019-04-29T16:41:58.651Z,42.93
2019-04-29T16:47:13.292Z,43.17
2019-04-29T16:52:18.104Z,39.23
2019-04-29T16:57:25.547Z,36.63
2019-04-29T17:02:33.026Z,36.27
2019-04-29T17:07:41.639Z,35.27
2019-04-29T17:12:51.110Z,34.27
2019-04-29T17:17:59.495Z,37.13
2019-04-29T17:23:06.797Z,36.27
2019-04-29T17:28:42.022Z,38.07
2019-04-29T17:33:59.196Z,36.17
2019-04-29T17:39:09.442Z,36.07
2019-04-29T17:44:28.213Z,39.17
2019-04-29T17:50:02.099Z,35.27
2019-04-29T17:55:38.659Z,35.50
2019-04-29T18:01:05.852Z,37.10
2019-04-29T18:06:24.438Z,33.77
2019-04-29T18:11:27.871Z,34.20
2019-04-29T18:16:43.781Z,32.57
2019-04-29T18:22:24.767Z,32.23
2019-04-29T18:27:34.994Z,31.70
2019-04-29T18:32:46.693Z,33.57
2019-04-29T18:37:55.742Z,33.47
2019-04-29T18:43:04.898Z,33.43
2019-04-29T18:48:16.988Z,33.40
2019-04-29T18:54:09.451Z,32.37
2019-04-29T18:59:30.404Z,31.40
2019-04-29T19:04:53.425Z,32.70
2019-04-29T19:11:15.384Z,31.17
2019-04-29T19:17:25.745Z,33.13
2019-04-29T19:22:47.639Z,32.23
2019-04-29T19:28:11.746Z,36.20
2019-04-29T19:33:15.144Z,35.30
2019-04-29T19:38:25.292Z,34.43
2019-04-29T19:43:42.678Z,33.33
2019-04-29T19:48:45.132Z,31.23
2019-04-29T19:54:23.893Z,30.60
2019-04-29T19:59:36.872Z,32.33
2019-04-29T20:05:09.992Z,34.07
2019-04-29T20:11:12.355Z,34.97
2019-04-29T20:16:09.888Z,33.90
2019-04-29T20:41:40.705Z,31.27
2019-04-29T20:58:50.408Z,33.83
2019-04-29T21:05:14.432Z,34.47
2019-04-29T21:30:35.555Z,38.03
2019-04-29T21:35:58.088Z,31.23
2019-04-29T21:41:20.137Z,31.03
2019-04-29T21:53:40.168Z,27.97
2019-04-29T21:58:46.342Z,26.47
2019-04-29T22:03:57.653Z,26.00
2019-04-29T22:09:05.185Z,27.50
2019-04-29T22:14:14.174Z,27.07
2019-04-29T22:20:07.437Z,25.50
2019-04-29T22:26:05.062Z,25.97
2019-04-29T22:31:14.843Z,26.80
2019-04-29T22:36:22.028Z,24.87
2019-04-29T22:42:07.566Z,17.47
2019-04-29T22:47:17.302Z,16.33
2019-04-29T22:52:25.488Z,12.80
2019-04-29T22:57:32.505Z,13.13
2019-04-29T23:02:39.928Z,12.10
2019-04-29T23:07:46.983Z,11.67
2019-04-29T23:12:57.439Z,12.60
2019-04-29T23:18:03.028Z,12.60
2019-04-29T23:23:15.684Z,12.20
2019-04-29T23:28:26.900Z,11.60
2019-04-29T23:33:31.868Z,11.20
2019-04-29T23:38:42.892Z,10.60
2019-04-29T23:43:47.899Z,10.73
2019-04-29T23:48:56.479Z,10.00
2019-04-29T23:54:07.856Z,9.63
2019-04-29T23:59:20.881Z,9.53
